createdAt,value
2023-02-09T00:02:44.044Z,-3.96
2023-02-09T00:07:45.670Z,-3.87
2023-02-09T00:13:06.523Z,-3.81
2023-02-09T00:18:08.120Z,-3.79
2023-02-09T00:23:09.716Z,-3.84
2023-02-09T00:28:11.371Z,-3.86
2023-02-09T00:33:13.119Z,-3.79
2023-02-09T00:38:14.897Z,-3.77
2023-02-09T00:43:16.508Z,-3.69
2023-02-09T00:48:18.151Z,-3.64
2023-02-09T00:53:21.368Z,-3.50
2023-02-09T00:58:23.400Z,-3.44
2023-02-09T01:03:25.021Z,-3.45
2023-02-09T01:08:28.586Z,-3.47
2023-02-09T01:13:30.249Z,-3.39
2023-02-09T01:18:33.431Z,-3.37
2023-02-09T01:23:36.904Z,-3.32
2023-02-09T01:28:38.879Z,-3.29
2023-02-09T01:33:40.502Z,-3.23
2023-02-09T01:38:42.156Z,-3.18
2023-02-09T01:43:52.268Z,-3.16
2023-02-09T01:49:01.422Z,-3.17
2023-02-09T01:54:14.983Z,-3.22
2023-02-09T01:59:17.873Z,-3.21
2023-02-09T02:04:21.324Z,-3.24
2023-02-09T02:09:24.024Z,-3.23
2023-02-09T02:14:40.046Z,-3.25
2023-02-09T02:20:03.577Z,-3.24
2023-02-09T02:25:36.904Z,-3.23
2023-02-09T02:30:57.987Z,-3.23
2023-02-09T02:36:14.874Z,-3.29
2023-02-09T02:41:57.088Z,-3.33
2023-02-09T02:47:03.348Z,-3.37
2023-02-09T02:52:09.398Z,-3.42
2023-02-09T02:57:18.924Z,-3.43
2023-02-09T03:02:26.913Z,-3.45
2023-02-09T03:07:28.562Z,-3.54
2023-02-09T03:12:39.239Z,-3.57
2023-02-09T03:17:56.474Z,-3.70
2023-02-09T03:23:02.540Z,-3.77
2023-02-09T03:28:09.717Z,-3.89
2023-02-09T03:33:26.211Z,-3.90
2023-02-09T03:38:28.613Z,-3.97
2023-02-09T03:44:08.595Z,-4.00
2023-02-09T03:49:11.482Z,-4.07
2023-02-09T03:54:13.144Z,-4.10
2023-02-09T03:59:14.769Z,-4.11
2023-02-09T04:04:16.363Z,-4.23
2023-02-09T04:09:18.031Z,-4.27
2023-02-09T04:14:19.882Z,-4.30
2023-02-09T04:19:21.534Z,-4.31
2023-02-09T04:24:23.212Z,-4.32
2023-02-09T04:29:24.989Z,-4.36
2023-02-09T04:34:26.795Z,-4.40
2023-02-09T04:39:28.483Z,-4.39
2023-02-09T04:44:30.131Z,-4.39
2023-02-09T04:49:31.766Z,-4.44
2023-02-09T04:54:33.712Z,-4.47
2023-02-09T04:59:36.460Z,-4.51
2023-02-09T05:04:38.278Z,-4.53
2023-02-09T05:09:39.932Z,-4.54
2023-02-09T05:14:41.538Z,-4.56
2023-02-09T05:19:43.138Z,-4.54
2023-02-09T05:24:45.021Z,-4.53
2023-02-09T05:29:46.734Z,-4.55
2023-02-09T05:34:48.388Z,-4.61
2023-02-09T05:39:51.128Z,-4.63
2023-02-09T05:44:53.076Z,-4.63
2023-02-09T05:49:54.681Z,-4.65
2023-02-09T05:54:56.509Z,-4.61
2023-02-09T05:59:58.157Z,-4.59
2023-02-09T06:04:59.798Z,-4.55
2023-02-09T06:10:01.610Z,-4.55
2023-02-09T06:15:03.668Z,-4.48
2023-02-09T06:20:06.041Z,-4.41
2023-02-09T06:25:08.105Z,-4.39
2023-02-09T06:30:10.492Z,-4.31
2023-02-09T06:35:12.386Z,-4.28
2023-02-09T06:40:14.285Z,-4.21
2023-02-09T06:45:17.509Z,-4.11
2023-02-09T06:50:19.669Z,-4.03
2023-02-09T06:55:21.636Z,-3.90
2023-02-09T07:00:23.992Z,-3.80
2023-02-09T07:05:26.137Z,-3.68
2023-02-09T07:10:27.945Z,-3.57
2023-02-09T07:15:29.516Z,-3.38
2023-02-09T07:20:31.131Z,-3.25
2023-02-09T07:25:34.221Z,-3.13
2023-02-09T07:30:40.973Z,-2.99
2023-02-09T07:35:42.628Z,-2.87
2023-02-09T07:40:46.592Z,-2.81
2023-02-09T07:45:48.647Z,-2.68
2023-02-09T07:50:51.342Z,-2.57
2023-02-09T07:55:53.347Z,-2.45
2023-02-09T08:00:54.977Z,-2.28
2023-02-09T08:06:01.976Z,-2.16
2023-02-09T08:11:05.484Z,-2.04
2023-02-09T08:16:15.791Z,-1.91
2023-02-09T08:21:18.670Z,-1.80
2023-02-09T08:26:20.382Z,-1.64
2023-02-09T08:31:22.562Z,-1.43
2023-02-09T08:36:24.509Z,-1.27
2023-02-09T08:41:26.141Z,-1.14
2023-02-09T08:46:28.223Z,-1.02
2023-02-09T08:51:29.953Z,-0.92
2023-02-09T08:56:31.596Z,-0.74
2023-02-09T09:01:33.306Z,-0.60
2023-02-09T09:06:35.107Z,-0.48
2023-02-09T09:11:36.952Z,-0.38
2023-02-09T09:16:38.899Z,-0.19
2023-02-09T09:21:40.532Z,-0.07
2023-02-09T09:26:42.479Z,0.08
2023-02-09T09:31:44.115Z,0.14
2023-02-09T09:36:45.783Z,0.33
2023-02-09T09:41:50.957Z,0.41
2023-02-09T09:46:54.438Z,0.48
2023-02-09T09:52:03.173Z,0.55
2023-02-09T09:57:18.428Z,0.71
2023-02-09T10:02:31.960Z,0.84
2023-02-09T10:07:34.564Z,0.97
2023-02-09T10:12:45.465Z,1.04
2023-02-09T10:17:47.183Z,1.18
2023-02-09T10:22:52.013Z,1.32
2023-02-09T10:27:53.833Z,1.40
2023-02-09T10:32:59.856Z,1.40
2023-02-09T10:38:02.626Z,1.60
2023-02-09T10:43:07.077Z,1.68
2023-02-09T10:48:19.288Z,1.80
2023-02-09T10:53:24.074Z,1.83
2023-02-09T10:58:35.420Z,1.90
2023-02-09T11:03:45.971Z,2.06
2023-02-09T11:09:03.031Z,2.17
2023-02-09T11:14:12.537Z,2.20
2023-02-09T11:19:26.324Z,2.34
2023-02-09T11:25:03.304Z,2.54
2023-02-09T11:30:17.283Z,2.61
2023-02-09T11:35:26.651Z,2.68
2023-02-09T11:40:42.376Z,2.75
2023-02-09T11:45:45.718Z,2.97
2023-02-09T11:51:20.702Z,2.96
2023-02-09T11:56:27.327Z,3.05
2023-02-09T12:01:45.425Z,3.12
2023-02-09T12:06:54.971Z,3.18
2023-02-09T12:12:05.948Z,3.36
2023-02-09T12:17:18.965Z,3.44
2023-02-09T12:22:35.819Z,3.49
2023-02-09T12:27:41.207Z,3.49
2023-02-09T12:32:45.210Z,3.68
2023-02-09T12:38:15.822Z,3.73
2023-02-09T12:43:27.147Z,3.73
2023-02-09T12:48:28.873Z,3.87
2023-02-09T12:53:40.785Z,3.83
2023-02-09T12:58:45.272Z,3.97
2023-02-09T13:03:53.616Z,3.97
2023-02-09T13:08:59.622Z,4.00
2023-02-09T13:14:07.451Z,4.02
2023-02-09T13:19:24.888Z,3.92
2023-02-09T13:24:49.008Z,3.97
2023-02-09T13:29:56.773Z,3.95
2023-02-09T13:35:01.629Z,3.86
2023-02-09T13:40:16.588Z,3.86
2023-02-09T13:45:19.065Z,3.95
2023-02-09T13:50:23.436Z,3.86
2023-02-09T13:55:27.077Z,3.88
2023-02-09T14:00:45.225Z,3.87
2023-02-09T14:06:20.492Z,3.65
2023-02-09T14:11:41.181Z,3.69
2023-02-09T14:16:52.940Z,3.66
2023-02-09T14:21:55.189Z,3.61
2023-02-09T14:27:05.324Z,3.44
2023-02-09T14:32:32.919Z,3.31
2023-02-09T14:37:36.989Z,3.18
2023-02-09T14:42:57.813Z,3.07
2023-02-09T14:47:59.623Z,2.95
2023-02-09T14:53:07.888Z,2.87
2023-02-09T14:58:23.317Z,2.75
2023-02-09T15:03:25.117Z,2.73
2023-02-09T15:08:30.293Z,2.62
2023-02-09T15:13:33.073Z,2.56
2023-02-09T15:18:36.426Z,2.49
2023-02-09T15:23:38.012Z,2.43
2023-02-09T15:28:39.736Z,2.34
2023-02-09T15:33:41.465Z,2.19
2023-02-09T15:38:43.171Z,2.11
2023-02-09T15:44:03.584Z,2.06
2023-02-09T15:49:07.336Z,1.89
2023-02-09T15:54:17.983Z,1.77
2023-02-09T15:59:23.917Z,1.70
2023-02-09T16:04:25.540Z,1.62
2023-02-09T16:09:29.021Z,1.53
2023-02-09T16:14:31.682Z,1.49
2023-02-09T16:19:33.832Z,1.40
2023-02-09T16:24:45.423Z,1.32
2023-02-09T16:29:47.276Z,1.19
2023-02-09T16:34:49.765Z,1.15
2023-02-09T16:39:51.470Z,1.07
2023-02-09T16:44:53.594Z,0.97
2023-02-09T16:49:59.460Z,1.00
2023-02-09T16:55:05.762Z,0.90
2023-02-09T17:00:08.276Z,0.86
2023-02-09T17:05:17.243Z,0.83
2023-02-09T17:10:21.027Z,0.82
2023-02-09T17:15:30.642Z,0.78
2023-02-09T17:20:40.764Z,0.71
2023-02-09T17:25:42.566Z,0.70
2023-02-09T17:30:45.371Z,0.65
2023-02-09T17:36:22.570Z,0.71
2023-02-09T17:41:22.527Z,0.57
2023-02-09T17:46:24.401Z,0.56
2023-02-09T17:51:31.955Z,0.57
2023-02-09T17:56:33.739Z,0.53
2023-02-09T18:01:47.157Z,0.47
2023-02-09T18:06:49.565Z,0.43
2023-02-09T18:11:51.147Z,0.40
2023-02-09T18:16:55.087Z,0.35
2023-02-09T18:21:59.975Z,0.34
2023-02-09T18:27:02.105Z,0.31
2023-02-09T18:32:04.115Z,0.30
2023-02-09T18:37:05.983Z,0.33
2023-02-09T18:42:07.593Z,0.29
2023-02-09T18:47:10.800Z,0.23
2023-02-09T18:52:17.036Z,0.28
2023-02-09T18:57:19.126Z,0.21
2023-02-09T19:02:21.275Z,0.09
2023-02-09T19:07:23.155Z,0.12
2023-02-09T19:12:27.002Z,0.08
2023-02-09T19:17:29.885Z,0.00
2023-02-09T19:22:32.328Z,-0.04
2023-02-09T19:27:33.983Z,-0.12
2023-02-09T19:32:36.509Z,-0.10
2023-02-09T19:37:39.977Z,-0.20
2023-02-09T19:42:41.576Z,-0.30
2023-02-09T19:47:43.453Z,-0.22
2023-02-09T19:52:47.578Z,-0.20
2023-02-09T19:57:49.299Z,-0.22
2023-02-09T20:02:50.998Z,-0.23
2023-02-09T20:07:54.453Z,-0.24
2023-02-09T20:12:56.178Z,-0.28
2023-02-09T20:17:58.124Z,-0.18
2023-02-09T20:22:59.801Z,-0.33
2023-02-09T20:28:01.500Z,-0.35
2023-02-09T20:33:03.143Z,-0.41
2023-02-09T20:38:04.749Z,-0.42
2023-02-09T20:43:25.098Z,-0.43
2023-02-09T20:48:26.789Z,-0.49
2023-02-09T20:53:28.424Z,-0.55
2023-02-09T20:58:30.288Z,-0.65
2023-02-09T21:03:31.872Z,-0.65
2023-02-09T21:08:35.848Z,-0.66
2023-02-09T21:13:41.025Z,-0.70
2023-02-09T21:18:44.389Z,-0.76
2023-02-09T21:23:46.577Z,-0.76
2023-02-09T21:28:48.627Z,-0.78
2023-02-09T21:33:50.283Z,-0.76
2023-02-09T21:38:52.018Z,-0.82
2023-02-09T21:43:53.632Z,-0.85
2023-02-09T21:48:55.705Z,-0.91
2023-02-09T21:53:57.419Z,-0.91
2023-02-09T21:58:59.441Z,-1.00
2023-02-09T22:04:01.337Z,-1.00
2023-02-09T22:09:06.143Z,-1.20
2023-02-09T22:14:08.305Z,-1.32
2023-02-09T22:19:10.205Z,-1.31
2023-02-09T22:24:13.888Z,-1.39
2023-02-09T22:29:16.834Z,-1.46
2023-02-09T22:34:18.748Z,-1.61
2023-02-09T22:39:21.456Z,-1.75
2023-02-09T22:44:24.935Z,-1.92
2023-02-09T22:49:28.315Z,-2.03
2023-02-09T22:54:30.007Z,-2.09
2023-02-09T22:59:31.772Z,-2.14
2023-02-09T23:04:33.434Z,-2.12
2023-02-09T23:09:35.546Z,-2.06
2023-02-09T23:14:37.211Z,-2.14
2023-02-09T23:19:40.251Z,-2.24
2023-02-09T23:24:42.739Z,-2.26
2023-02-09T23:29:44.329Z,-2.27
2023-02-09T23:34:45.945Z,-2.27
2023-02-09T23:39:47.587Z,-2.27
2023-02-09T23:44:49.219Z,-2.35
2023-02-09T23:49:50.912Z,-2.41
2023-02-09T23:54:52.760Z,-2.52
2023-02-09T23:59:54.513Z,-2.56
